Terminal Aerodrome Forecast
Issued by NWS

Home | Current Version | Previous Version | Text Only | Print | Product List | Glossary On
Versions: 1 2 3 4 5 6 7 8 9 10 11 12 13 14 15 16 17 18 19
312
FTUS41 KCAR 281738
TAFBHB
TAF
KBHB 281738Z 2818/2918 15008KT P6SM FEW040 SCT250
     FM290400 09005KT 3SM BR BKN070
     FM290700 09009KT 3SM BR SCT005 BKN015
     FM291200 09008KT P6SM BKN015
     FM291400 10008KT P6SM BKN035=

USA.gov is the U.S. government's official web portal to all federal, state and local government web resources and services.